sensor_id;sensor_type;location;lat;lon;timestamp;P1;durP1;ratioP1;P2;durP2;ratioP2
6378;SDS011;3222;48.858;10.128;2023-05-10T00:00:40;3.93;;;1.43;;
6378;SDS011;3222;48.858;10.128;2023-05-10T00:03:06;4.83;;;1.60;;
6378;SDS011;3222;48.858;10.128;2023-05-10T00:05:32;1.60;;;1.50;;
6378;SDS011;3222;48.858;10.128;2023-05-10T00:07:58;1.50;;;1.40;;
6378;SDS011;3222;48.858;10.128;2023-05-10T00:10:23;1.43;;;1.33;;
6378;SDS011;3222;48.858;10.128;2023-05-10T00:12:49;2.47;;;2.00;;
6378;SDS011;3222;48.858;10.128;2023-05-10T00:15:14;5.30;;;2.97;;
6378;SDS011;3222;48.858;10.128;2023-05-10T00:17:40;7.27;;;3.83;;
6378;SDS011;3222;48.858;10.128;2023-05-10T00:20:06;4.67;;;2.97;;
6378;SDS011;3222;48.858;10.128;2023-05-10T00:22:32;5.83;;;2.23;;
6378;SDS011;3222;48.858;10.128;2023-05-10T00:24:58;5.73;;;2.50;;
6378;SDS011;3222;48.858;10.128;2023-05-10T00:27:24;5.73;;;2.10;;
6378;SDS011;3222;48.858;10.128;2023-05-10T00:29:50;1.50;;;1.40;;
6378;SDS011;3222;48.858;10.128;2023-05-10T00:32:15;4.27;;;1.20;;
6378;SDS011;3222;48.858;10.128;2023-05-10T00:34:42;2.40;;;1.10;;
6378;SDS011;3222;48.858;10.128;2023-05-10T00:37:07;3.33;;;1.13;;
6378;SDS011;3222;48.858;10.128;2023-05-10T00:39:33;2.93;;;1.10;;
6378;SDS011;3222;48.858;10.128;2023-05-10T00:41:58;1.20;;;1.10;;
6378;SDS011;3222;48.858;10.128;2023-05-10T00:44:25;1.53;;;1.30;;
6378;SDS011;3222;48.858;10.128;2023-05-10T00:46:51;2.83;;;1.33;;
6378;SDS011;3222;48.858;10.128;2023-05-10T00:49:18;2.73;;;1.40;;
6378;SDS011;3222;48.858;10.128;2023-05-10T00:51:44;1.60;;;1.00;;
6378;SDS011;3222;48.858;10.128;2023-05-10T00:54:11;1.03;;;1.00;;
6378;SDS011;3222;48.858;10.128;2023-05-10T00:56:38;3.13;;;1.37;;
6378;SDS011;3222;48.858;10.128;2023-05-10T00:59:05;2.77;;;1.50;;
6378;SDS011;3222;48.858;10.128;2023-05-10T01:01:31;1.20;;;1.20;;
6378;SDS011;3222;48.858;10.128;2023-05-10T01:03:57;1.43;;;1.07;;
6378;SDS011;3222;48.858;10.128;2023-05-10T01:06:23;3.57;;;1.20;;
6378;SDS011;3222;48.858;10.128;2023-05-10T01:08:51;2.73;;;1.10;;
6378;SDS011;3222;48.858;10.128;2023-05-10T01:11:16;1.10;;;1.10;;
6378;SDS011;3222;48.858;10.128;2023-05-10T01:13:42;3.90;;;1.50;;
6378;SDS011;3222;48.858;10.128;2023-05-10T01:16:13;2.97;;;2.00;;
6378;SDS011;3222;48.858;10.128;2023-05-10T01:18:41;1.50;;;1.40;;
6378;SDS011;3222;48.858;10.128;2023-05-10T01:21:13;1.30;;;1.20;;
6378;SDS011;3222;48.858;10.128;2023-05-10T01:32:35;1.77;;;1.10;;
6378;SDS011;3222;48.858;10.128;2023-05-10T01:38:07;0.97;;;0.97;;
6378;SDS011;3222;48.858;10.128;2023-05-10T01:40:40;1.50;;;0.90;;
6378;SDS011;3222;48.858;10.128;2023-05-10T01:43:08;1.17;;;0.93;;
6378;SDS011;3222;48.858;10.128;2023-05-10T01:48:35;0.70;;;0.70;;
6378;SDS011;3222;48.858;10.128;2023-05-10T01:51:03;1.10;;;1.00;;
6378;SDS011;3222;48.858;10.128;2023-05-10T01:53:31;3.40;;;1.20;;
6378;SDS011;3222;48.858;10.128;2023-05-10T01:55:58;1.13;;;1.10;;
6378;SDS011;3222;48.858;10.128;2023-05-10T01:58:29;2.50;;;1.40;;
6378;SDS011;3222;48.858;10.128;2023-05-10T02:00:58;0.93;;;0.90;;
6378;SDS011;3222;48.858;10.128;2023-05-10T02:03:26;0.70;;;0.70;;
6378;SDS011;3222;48.858;10.128;2023-05-10T02:05:53;4.00;;;1.27;;
6378;SDS011;3222;48.858;10.128;2023-05-10T02:08:21;1.00;;;1.00;;
6378;SDS011;3222;48.858;10.128;2023-05-10T02:10:47;0.90;;;0.90;;
6378;SDS011;3222;48.858;10.128;2023-05-10T02:13:16;0.80;;;0.80;;
6378;SDS011;3222;48.858;10.128;2023-05-10T02:15:43;1.40;;;0.77;;
6378;SDS011;3222;48.858;10.128;2023-05-10T02:18:12;0.80;;;0.80;;
6378;SDS011;3222;48.858;10.128;2023-05-10T02:20:39;0.90;;;0.90;;
6378;SDS011;3222;48.858;10.128;2023-05-10T02:23:05;1.57;;;0.90;;
6378;SDS011;3222;48.858;10.128;2023-05-10T02:25:34;1.13;;;1.03;;
6378;SDS011;3222;48.858;10.128;2023-05-10T02:28:02;1.73;;;1.30;;
6378;SDS011;3222;48.858;10.128;2023-05-10T02:30:30;0.90;;;0.90;;
6378;SDS011;3222;48.858;10.128;2023-05-10T02:32:57;1.10;;;0.90;;
6378;SDS011;3222;48.858;10.128;2023-05-10T02:35:24;2.53;;;1.67;;
6378;SDS011;3222;48.858;10.128;2023-05-10T02:37:51;1.67;;;1.27;;
6378;SDS011;3222;48.858;10.128;2023-05-10T02:40:18;0.80;;;0.80;;
6378;SDS011;3222;48.858;10.128;2023-05-10T02:42:46;0.97;;;0.97;;
6378;SDS011;3222;48.858;10.128;2023-05-10T02:45:15;3.03;;;0.90;;
6378;SDS011;3222;48.858;10.128;2023-05-10T02:47:44;1.13;;;0.80;;
6378;SDS011;3222;48.858;10.128;2023-05-10T02:50:10;2.93;;;0.80;;
6378;SDS011;3222;48.858;10.128;2023-05-10T02:52:38;0.70;;;0.70;;
6378;SDS011;3222;48.858;10.128;2023-05-10T02:55:06;0.60;;;0.60;;
6378;SDS011;3222;48.858;10.128;2023-05-10T02:57:34;0.50;;;0.50;;
6378;SDS011;3222;48.858;10.128;2023-05-10T03:00:07;0.60;;;0.60;;
6378;SDS011;3222;48.858;10.128;2023-05-10T03:02:33;0.60;;;0.60;;
6378;SDS011;3222;48.858;10.128;2023-05-10T03:04:59;1.30;;;0.90;;
6378;SDS011;3222;48.858;10.128;2023-05-10T03:07:25;1.47;;;1.37;;
6378;SDS011;3222;48.858;10.128;2023-05-10T03:09:51;2.83;;;1.77;;
6378;SDS011;3222;48.858;10.128;2023-05-10T03:15:34;3.60;;;0.93;;
6378;SDS011;3222;48.858;10.128;2023-05-10T03:18:47;0.90;;;0.90;;
6378;SDS011;3222;48.858;10.128;2023-05-10T03:20:57;1.47;;;1.20;;
6378;SDS011;3222;48.858;10.128;2023-05-10T03:23:30;1.50;;;1.40;;
6378;SDS011;3222;48.858;10.128;2023-05-10T03:25:58;1.10;;;1.10;;
6378;SDS011;3222;48.858;10.128;2023-05-10T03:28:25;1.00;;;1.00;;
6378;SDS011;3222;48.858;10.128;2023-05-10T03:30:52;2.53;;;1.00;;
6378;SDS011;3222;48.858;10.128;2023-05-10T03:33:19;0.83;;;0.83;;
6378;SDS011;3222;48.858;10.128;2023-05-10T03:35:45;0.90;;;0.90;;
6378;SDS011;3222;48.858;10.128;2023-05-10T03:38:12;2.53;;;1.13;;
6378;SDS011;3222;48.858;10.128;2023-05-10T03:40:39;1.07;;;1.07;;
6378;SDS011;3222;48.858;10.128;2023-05-10T03:43:04;1.00;;;1.00;;
6378;SDS011;3222;48.858;10.128;2023-05-10T03:45:30;2.00;;;0.93;;
6378;SDS011;3222;48.858;10.128;2023-05-10T03:47:56;1.00;;;1.00;;
6378;SDS011;3222;48.858;10.128;2023-05-10T03:50:23;1.23;;;1.23;;
6378;SDS011;3222;48.858;10.128;2023-05-10T03:52:49;1.40;;;1.30;;
6378;SDS011;3222;48.858;10.128;2023-05-10T03:55:15;1.33;;;1.20;;
6378;SDS011;3222;48.858;10.128;2023-05-10T03:57:41;1.23;;;1.20;;
6378;SDS011;3222;48.858;10.128;2023-05-10T04:00:07;2.47;;;1.30;;
6378;SDS011;3222;48.858;10.128;2023-05-10T04:02:42;2.80;;;1.20;;
6378;SDS011;3222;48.858;10.128;2023-05-10T04:05:12;1.33;;;1.30;;
6378;SDS011;3222;48.858;10.128;2023-05-10T04:07:37;1.40;;;1.30;;
6378;SDS011;3222;48.858;10.128;2023-05-10T04:10:03;1.60;;;1.50;;
6378;SDS011;3222;48.858;10.128;2023-05-10T04:12:29;1.27;;;1.23;;
6378;SDS011;3222;48.858;10.128;2023-05-10T04:14:55;1.43;;;1.40;;
6378;SDS011;3222;48.858;10.128;2023-05-10T04:17:20;1.83;;;1.50;;
6378;SDS011;3222;48.858;10.128;2023-05-10T04:19:46;1.77;;;1.33;;
6378;SDS011;3222;48.858;10.128;2023-05-10T04:22:11;1.97;;;1.87;;
6378;SDS011;3222;48.858;10.128;2023-05-10T04:24:37;2.47;;;1.60;;
6378;SDS011;3222;48.858;10.128;2023-05-10T04:27:03;1.60;;;1.50;;
6378;SDS011;3222;48.858;10.128;2023-05-10T04:29:28;2.57;;;1.80;;
6378;SDS011;3222;48.858;10.128;2023-05-10T04:31:54;1.97;;;1.60;;
6378;SDS011;3222;48.858;10.128;2023-05-10T04:34:21;2.00;;;1.90;;
6378;SDS011;3222;48.858;10.128;2023-05-10T04:36:47;2.20;;;2.00;;
6378;SDS011;3222;48.858;10.128;2023-05-10T04:39:12;3.20;;;2.90;;
6378;SDS011;3222;48.858;10.128;2023-05-10T04:41:38;3.33;;;3.00;;
6378;SDS011;3222;48.858;10.128;2023-05-10T04:44:04;6.87;;;2.97;;
6378;SDS011;3222;48.858;10.128;2023-05-10T04:46:30;5.30;;;3.77;;
6378;SDS011;3222;48.858;10.128;2023-05-10T04:48:56;4.73;;;3.30;;
6378;SDS011;3222;48.858;10.128;2023-05-10T04:51:21;7.73;;;2.60;;
6378;SDS011;3222;48.858;10.128;2023-05-10T04:53:47;2.20;;;2.00;;
6378;SDS011;3222;48.858;10.128;2023-05-10T04:56:12;2.83;;;1.87;;
6378;SDS011;3222;48.858;10.128;2023-05-10T04:58:38;2.03;;;1.93;;
6378;SDS011;3222;48.858;10.128;2023-05-10T05:01:08;1.93;;;1.83;;
6378;SDS011;3222;48.858;10.128;2023-05-10T05:03:35;2.13;;;2.03;;
6378;SDS011;3222;48.858;10.128;2023-05-10T05:06:01;6.47;;;2.20;;
6378;SDS011;3222;48.858;10.128;2023-05-10T05:08:27;2.00;;;1.90;;
6378;SDS011;3222;48.858;10.128;2023-05-10T05:10:53;3.30;;;2.17;;
6378;SDS011;3222;48.858;10.128;2023-05-10T05:13:19;1.83;;;1.73;;
6378;SDS011;3222;48.858;10.128;2023-05-10T05:15:45;2.47;;;2.30;;
6378;SDS011;3222;48.858;10.128;2023-05-10T05:18:11;2.23;;;2.00;;
6378;SDS011;3222;48.858;10.128;2023-05-10T05:20:36;2.50;;;2.00;;
6378;SDS011;3222;48.858;10.128;2023-05-10T05:23:02;2.53;;;2.33;;
6378;SDS011;3222;48.858;10.128;2023-05-10T05:25:28;3.57;;;2.07;;
6378;SDS011;3222;48.858;10.128;2023-05-10T05:27:53;2.40;;;2.30;;
6378;SDS011;3222;48.858;10.128;2023-05-10T05:30:19;2.60;;;2.40;;
6378;SDS011;3222;48.858;10.128;2023-05-10T05:32:45;3.10;;;2.77;;
6378;SDS011;3222;48.858;10.128;2023-05-10T05:35:12;2.77;;;2.57;;
6378;SDS011;3222;48.858;10.128;2023-05-10T05:37:38;3.73;;;2.10;;
6378;SDS011;3222;48.858;10.128;2023-05-10T05:40:04;2.53;;;2.43;;
6378;SDS011;3222;48.858;10.128;2023-05-10T05:42:30;2.57;;;2.40;;
6378;SDS011;3222;48.858;10.128;2023-05-10T05:44:56;2.70;;;2.50;;
6378;SDS011;3222;48.858;10.128;2023-05-10T05:47:22;2.33;;;2.10;;
6378;SDS011;3222;48.858;10.128;2023-05-10T05:49:48;2.20;;;2.00;;
6378;SDS011;3222;48.858;10.128;2023-05-10T05:52:13;2.00;;;1.90;;
6378;SDS011;3222;48.858;10.128;2023-05-10T05:54:39;2.50;;;2.30;;
6378;SDS011;3222;48.858;10.128;2023-05-10T05:57:05;2.10;;;1.93;;
6378;SDS011;3222;48.858;10.128;2023-05-10T05:59:30;2.20;;;2.10;;
6378;SDS011;3222;48.858;10.128;2023-05-10T06:01:56;2.33;;;2.23;;
6378;SDS011;3222;48.858;10.128;2023-05-10T06:04:22;2.87;;;1.73;;
6378;SDS011;3222;48.858;10.128;2023-05-10T06:06:47;1.53;;;1.50;;
6378;SDS011;3222;48.858;10.128;2023-05-10T06:09:13;1.90;;;1.80;;
6378;SDS011;3222;48.858;10.128;2023-05-10T06:11:39;2.03;;;1.93;;
6378;SDS011;3222;48.858;10.128;2023-05-10T06:14:04;1.90;;;1.80;;
6378;SDS011;3222;48.858;10.128;2023-05-10T06:16:32;2.03;;;1.80;;
6378;SDS011;3222;48.858;10.128;2023-05-10T06:18:58;1.70;;;1.60;;
6378;SDS011;3222;48.858;10.128;2023-05-10T06:21:23;1.40;;;1.40;;
6378;SDS011;3222;48.858;10.128;2023-05-10T06:23:49;1.70;;;1.60;;
6378;SDS011;3222;48.858;10.128;2023-05-10T06:26:15;1.80;;;1.50;;
6378;SDS011;3222;48.858;10.128;2023-05-10T06:28:40;2.57;;;2.00;;
6378;SDS011;3222;48.858;10.128;2023-05-10T06:31:06;1.50;;;1.50;;
6378;SDS011;3222;48.858;10.128;2023-05-10T06:33:32;1.40;;;1.30;;
6378;SDS011;3222;48.858;10.128;2023-05-10T06:35:58;1.40;;;1.30;;
6378;SDS011;3222;48.858;10.128;2023-05-10T06:38:24;3.40;;;1.33;;
6378;SDS011;3222;48.858;10.128;2023-05-10T06:40:49;1.37;;;1.30;;
6378;SDS011;3222;48.858;10.128;2023-05-10T06:43:15;1.50;;;1.40;;
6378;SDS011;3222;48.858;10.128;2023-05-10T06:45:41;1.30;;;1.20;;
6378;SDS011;3222;48.858;10.128;2023-05-10T06:48:07;1.40;;;1.30;;
6378;SDS011;3222;48.858;10.128;2023-05-10T06:50:33;1.37;;;1.37;;
6378;SDS011;3222;48.858;10.128;2023-05-10T06:52:59;2.10;;;1.43;;
6378;SDS011;3222;48.858;10.128;2023-05-10T06:55:25;1.67;;;1.40;;
6378;SDS011;3222;48.858;10.128;2023-05-10T06:57:51;1.63;;;1.53;;
6378;SDS011;3222;48.858;10.128;2023-05-10T07:00:17;2.13;;;1.20;;
6378;SDS011;3222;48.858;10.128;2023-05-10T07:02:43;3.70;;;1.50;;
6378;SDS011;3222;48.858;10.128;2023-05-10T07:05:09;3.53;;;1.60;;
6378;SDS011;3222;48.858;10.128;2023-05-10T07:07:35;1.87;;;1.50;;
6378;SDS011;3222;48.858;10.128;2023-05-10T07:10:01;2.47;;;1.50;;
6378;SDS011;3222;48.858;10.128;2023-05-10T07:12:27;3.30;;;1.87;;
6378;SDS011;3222;48.858;10.128;2023-05-10T07:14:53;1.80;;;1.70;;
6378;SDS011;3222;48.858;10.128;2023-05-10T07:17:18;2.50;;;1.53;;
6378;SDS011;3222;48.858;10.128;2023-05-10T07:19:44;1.97;;;1.80;;
6378;SDS011;3222;48.858;10.128;2023-05-10T07:22:10;2.03;;;1.90;;
6378;SDS011;3222;48.858;10.128;2023-05-10T07:24:36;3.60;;;1.73;;
6378;SDS011;3222;48.858;10.128;2023-05-10T07:27:01;2.20;;;1.90;;
6378;SDS011;3222;48.858;10.128;2023-05-10T07:29:27;4.47;;;2.27;;
6378;SDS011;3222;48.858;10.128;2023-05-10T07:31:53;2.60;;;2.00;;
6378;SDS011;3222;48.858;10.128;2023-05-10T07:34:19;1.90;;;1.80;;
6378;SDS011;3222;48.858;10.128;2023-05-10T07:36:45;2.43;;;2.00;;
6378;SDS011;3222;48.858;10.128;2023-05-10T07:39:10;2.10;;;1.90;;
6378;SDS011;3222;48.858;10.128;2023-05-10T07:41:36;3.60;;;2.23;;
6378;SDS011;3222;48.858;10.128;2023-05-10T07:44:03;2.43;;;2.23;;
6378;SDS011;3222;48.858;10.128;2023-05-10T07:46:29;2.10;;;2.00;;
6378;SDS011;3222;48.858;10.128;2023-05-10T07:48:55;3.23;;;2.40;;
6378;SDS011;3222;48.858;10.128;2023-05-10T07:51:20;4.83;;;1.90;;
6378;SDS011;3222;48.858;10.128;2023-05-10T07:53:46;1.97;;;1.70;;
6378;SDS011;3222;48.858;10.128;2023-05-10T07:56:25;1.90;;;1.77;;
6378;SDS011;3222;48.858;10.128;2023-05-10T07:58:54;2.10;;;1.90;;
6378;SDS011;3222;48.858;10.128;2023-05-10T08:01:20;2.37;;;1.87;;
6378;SDS011;3222;48.858;10.128;2023-05-10T08:03:47;5.33;;;2.00;;
6378;SDS011;3222;48.858;10.128;2023-05-10T08:06:13;2.87;;;2.20;;
6378;SDS011;3222;48.858;10.128;2023-05-10T08:08:43;2.60;;;2.40;;
6378;SDS011;3222;48.858;10.128;2023-05-10T08:11:10;3.40;;;3.10;;
6378;SDS011;3222;48.858;10.128;2023-05-10T08:13:36;4.73;;;3.70;;
6378;SDS011;3222;48.858;10.128;2023-05-10T08:16:01;4.60;;;3.80;;
6378;SDS011;3222;48.858;10.128;2023-05-10T08:18:27;7.70;;;4.17;;
6378;SDS011;3222;48.858;10.128;2023-05-10T08:20:53;4.60;;;4.20;;
6378;SDS011;3222;48.858;10.128;2023-05-10T08:23:19;5.60;;;4.50;;
6378;SDS011;3222;48.858;10.128;2023-05-10T08:25:44;5.73;;;4.97;;
6378;SDS011;3222;48.858;10.128;2023-05-10T08:28:10;8.57;;;3.87;;
6378;SDS011;3222;48.858;10.128;2023-05-10T08:30:35;5.03;;;3.40;;
6378;SDS011;3222;48.858;10.128;2023-05-10T08:33:01;6.77;;;3.13;;
6378;SDS011;3222;48.858;10.128;2023-05-10T08:35:27;2.90;;;2.57;;
6378;SDS011;3222;48.858;10.128;2023-05-10T08:37:52;2.67;;;2.40;;
6378;SDS011;3222;48.858;10.128;2023-05-10T08:40:19;4.07;;;2.10;;
6378;SDS011;3222;48.858;10.128;2023-05-10T08:42:50;7.13;;;1.93;;
6378;SDS011;3222;48.858;10.128;2023-05-10T08:45:21;2.10;;;1.90;;
6378;SDS011;3222;48.858;10.128;2023-05-10T08:47:48;1.87;;;1.77;;
6378;SDS011;3222;48.858;10.128;2023-05-10T08:50:16;2.00;;;1.83;;
6378;SDS011;3222;48.858;10.128;2023-05-10T08:52:45;2.37;;;2.00;;
6378;SDS011;3222;48.858;10.128;2023-05-10T08:55:13;2.53;;;1.97;;
6378;SDS011;3222;48.858;10.128;2023-05-10T08:57:40;2.40;;;2.20;;
6378;SDS011;3222;48.858;10.128;2023-05-10T09:00:06;2.73;;;2.20;;
6378;SDS011;3222;48.858;10.128;2023-05-10T09:02:33;2.27;;;2.07;;
6378;SDS011;3222;48.858;10.128;2023-05-10T09:04:59;1.83;;;1.73;;
6378;SDS011;3222;48.858;10.128;2023-05-10T09:07:25;1.83;;;1.73;;
6378;SDS011;3222;48.858;10.128;2023-05-10T09:09:51;4.50;;;1.60;;
6378;SDS011;3222;48.858;10.128;2023-05-10T09:12:17;1.90;;;1.60;;
6378;SDS011;3222;48.858;10.128;2023-05-10T09:14:43;2.17;;;1.73;;
6378;SDS011;3222;48.858;10.128;2023-05-10T09:17:10;2.43;;;1.40;;
6378;SDS011;3222;48.858;10.128;2023-05-10T09:19:35;1.87;;;1.67;;
6378;SDS011;3222;48.858;10.128;2023-05-10T09:22:01;1.30;;;1.20;;
6378;SDS011;3222;48.858;10.128;2023-05-10T09:24:28;3.07;;;1.40;;
6378;SDS011;3222;48.858;10.128;2023-05-10T09:26:56;1.80;;;1.20;;
6378;SDS011;3222;48.858;10.128;2023-05-10T09:29:23;1.63;;;1.30;;
6378;SDS011;3222;48.858;10.128;2023-05-10T09:31:49;2.27;;;1.20;;
6378;SDS011;3222;48.858;10.128;2023-05-10T09:34:50;1.60;;;1.50;;
6378;SDS011;3222;48.858;10.128;2023-05-10T09:37:09;1.00;;;1.00;;
6378;SDS011;3222;48.858;10.128;2023-05-10T09:39:36;1.20;;;1.20;;
6378;SDS011;3222;48.858;10.128;2023-05-10T09:42:03;1.30;;;1.20;;
6378;SDS011;3222;48.858;10.128;2023-05-10T09:44:34;1.53;;;1.43;;
6378;SDS011;3222;48.858;10.128;2023-05-10T09:47:00;2.73;;;1.80;;
6378;SDS011;3222;48.858;10.128;2023-05-10T09:49:26;1.77;;;1.63;;
6378;SDS011;3222;48.858;10.128;2023-05-10T09:52:05;1.27;;;1.23;;
6378;SDS011;3222;48.858;10.128;2023-05-10T09:54:32;1.87;;;1.60;;
6378;SDS011;3222;48.858;10.128;2023-05-10T09:56:58;1.37;;;1.30;;
6378;SDS011;3222;48.858;10.128;2023-05-10T09:59:25;2.00;;;1.33;;
6378;SDS011;3222;48.858;10.128;2023-05-10T10:02:01;1.77;;;1.50;;
6378;SDS011;3222;48.858;10.128;2023-05-10T10:04:27;2.83;;;1.63;;
6378;SDS011;3222;48.858;10.128;2023-05-10T10:07:00;1.63;;;1.53;;
6378;SDS011;3222;48.858;10.128;2023-05-10T10:09:29;1.07;;;1.07;;
6378;SDS011;3222;48.858;10.128;2023-05-10T10:11:55;5.97;;;1.20;;
6378;SDS011;3222;48.858;10.128;2023-05-10T10:14:22;1.00;;;1.00;;
6378;SDS011;3222;48.858;10.128;2023-05-10T10:16:51;1.07;;;1.07;;
6378;SDS011;3222;48.858;10.128;2023-05-10T10:19:20;1.00;;;1.00;;
6378;SDS011;3222;48.858;10.128;2023-05-10T10:21:50;1.10;;;1.10;;
6378;SDS011;3222;48.858;10.128;2023-05-10T10:24:16;2.03;;;1.00;;
6378;SDS011;3222;48.858;10.128;2023-05-10T10:26:42;2.40;;;1.10;;
6378;SDS011;3222;48.858;10.128;2023-05-10T10:31:52;0.97;;;0.97;;
6378;SDS011;3222;48.858;10.128;2023-05-10T10:34:36;0.90;;;0.90;;
6378;SDS011;3222;48.858;10.128;2023-05-10T10:37:04;2.03;;;1.80;;
6378;SDS011;3222;48.858;10.128;2023-05-10T10:39:31;1.00;;;1.00;;
6378;SDS011;3222;48.858;10.128;2023-05-10T10:41:58;1.07;;;1.07;;
6378;SDS011;3222;48.858;10.128;2023-05-10T10:44:25;1.43;;;1.33;;
6378;SDS011;3222;48.858;10.128;2023-05-10T10:49:50;1.00;;;1.00;;
6378;SDS011;3222;48.858;10.128;2023-05-10T10:52:27;1.10;;;1.10;;
6378;SDS011;3222;48.858;10.128;2023-05-10T10:54:59;1.30;;;1.20;;
6378;SDS011;3222;48.858;10.128;2023-05-10T10:57:26;1.90;;;1.30;;
6378;SDS011;3222;48.858;10.128;2023-05-10T11:02:47;1.23;;;1.23;;
6378;SDS011;3222;48.858;10.128;2023-05-10T11:08:06;1.37;;;1.37;;
6378;SDS011;3222;48.858;10.128;2023-05-10T11:10:53;1.10;;;1.10;;
6378;SDS011;3222;48.858;10.128;2023-05-10T11:13:44;1.53;;;1.10;;
6378;SDS011;3222;48.858;10.128;2023-05-10T11:18:45;1.10;;;1.10;;
6378;SDS011;3222;48.858;10.128;2023-05-10T11:21:23;2.43;;;1.20;;
6378;SDS011;3222;48.858;10.128;2023-05-10T11:23:50;2.10;;;1.10;;
6378;SDS011;3222;48.858;10.128;2023-05-10T11:26:21;2.60;;;0.90;;
6378;SDS011;3222;48.858;10.128;2023-05-10T11:28:50;2.20;;;1.27;;
6378;SDS011;3222;48.858;10.128;2023-05-10T11:31:17;0.80;;;0.80;;
6378;SDS011;3222;48.858;10.128;2023-05-10T11:33:51;0.80;;;0.80;;
6378;SDS011;3222;48.858;10.128;2023-05-10T11:36:19;3.10;;;0.80;;
6378;SDS011;3222;48.858;10.128;2023-05-10T11:38:52;0.70;;;0.70;;
6378;SDS011;3222;48.858;10.128;2023-05-10T11:41:19;3.13;;;1.10;;
6378;SDS011;3222;48.858;10.128;2023-05-10T11:43:47;1.43;;;1.00;;
6378;SDS011;3222;48.858;10.128;2023-05-10T11:46:15;0.97;;;0.90;;
6378;SDS011;3222;48.858;10.128;2023-05-10T11:48:43;0.93;;;0.70;;
6378;SDS011;3222;48.858;10.128;2023-05-10T11:51:09;0.87;;;0.87;;
6378;SDS011;3222;48.858;10.128;2023-05-10T11:53:36;0.90;;;0.80;;
6378;SDS011;3222;48.858;10.128;2023-05-10T11:56:09;1.13;;;0.80;;
6378;SDS011;3222;48.858;10.128;2023-05-10T11:58:36;1.70;;;0.80;;
6378;SDS011;3222;48.858;10.128;2023-05-10T12:01:04;1.00;;;0.97;;
6378;SDS011;3222;48.858;10.128;2023-05-10T12:03:31;1.00;;;0.90;;
6378;SDS011;3222;48.858;10.128;2023-05-10T12:05:57;2.43;;;1.10;;
6378;SDS011;3222;48.858;10.128;2023-05-10T12:08:25;2.27;;;1.10;;
6378;SDS011;3222;48.858;10.128;2023-05-10T12:10:51;1.10;;;0.90;;
6378;SDS011;3222;48.858;10.128;2023-05-10T12:13:19;1.50;;;1.40;;
6378;SDS011;3222;48.858;10.128;2023-05-10T12:15:46;1.20;;;1.20;;
6378;SDS011;3222;48.858;10.128;2023-05-10T12:18:12;1.07;;;1.07;;
6378;SDS011;3222;48.858;10.128;2023-05-10T12:20:39;0.87;;;0.80;;
6378;SDS011;3222;48.858;10.128;2023-05-10T12:23:05;1.67;;;1.13;;
6378;SDS011;3222;48.858;10.128;2023-05-10T12:25:34;1.10;;;1.10;;
6378;SDS011;3222;48.858;10.128;2023-05-10T12:28:05;1.30;;;1.20;;
6378;SDS011;3222;48.858;10.128;2023-05-10T12:30:33;1.10;;;1.10;;
6378;SDS011;3222;48.858;10.128;2023-05-10T12:33:07;1.97;;;1.03;;
6378;SDS011;3222;48.858;10.128;2023-05-10T12:35:38;4.03;;;1.37;;
6378;SDS011;3222;48.858;10.128;2023-05-10T12:38:29;1.17;;;1.03;;
6378;SDS011;3222;48.858;10.128;2023-05-10T12:40:59;2.13;;;1.10;;
6378;SDS011;3222;48.858;10.128;2023-05-10T12:43:26;2.70;;;0.90;;
6378;SDS011;3222;48.858;10.128;2023-05-10T12:45:52;1.47;;;0.90;;
6378;SDS011;3222;48.858;10.128;2023-05-10T12:48:18;2.43;;;1.00;;
6378;SDS011;3222;48.858;10.128;2023-05-10T12:50:44;1.57;;;1.20;;
6378;SDS011;3222;48.858;10.128;2023-05-10T12:53:10;1.73;;;1.00;;
6378;SDS011;3222;48.858;10.128;2023-05-10T12:55:36;1.10;;;1.00;;
6378;SDS011;3222;48.858;10.128;2023-05-10T12:58:02;1.90;;;0.93;;
6378;SDS011;3222;48.858;10.128;2023-05-10T13:00:27;2.43;;;1.07;;
6378;SDS011;3222;48.858;10.128;2023-05-10T13:02:53;2.80;;;1.27;;
6378;SDS011;3222;48.858;10.128;2023-05-10T13:05:19;1.10;;;1.00;;
6378;SDS011;3222;48.858;10.128;2023-05-10T13:07:44;5.20;;;1.20;;
6378;SDS011;3222;48.858;10.128;2023-05-10T13:10:10;2.40;;;1.03;;
6378;SDS011;3222;48.858;10.128;2023-05-10T13:12:36;3.27;;;1.20;;
6378;SDS011;3222;48.858;10.128;2023-05-10T13:15:02;1.00;;;1.00;;
6378;SDS011;3222;48.858;10.128;2023-05-10T13:17:28;6.17;;;1.20;;
6378;SDS011;3222;48.858;10.128;2023-05-10T13:19:54;1.50;;;1.00;;
6378;SDS011;3222;48.858;10.128;2023-05-10T13:22:20;0.90;;;0.90;;
6378;SDS011;3222;48.858;10.128;2023-05-10T13:24:46;2.73;;;0.93;;
6378;SDS011;3222;48.858;10.128;2023-05-10T13:27:11;4.33;;;1.60;;
6378;SDS011;3222;48.858;10.128;2023-05-10T13:29:37;1.97;;;1.30;;
6378;SDS011;3222;48.858;10.128;2023-05-10T13:32:03;1.80;;;1.33;;
6378;SDS011;3222;48.858;10.128;2023-05-10T13:34:29;2.93;;;1.20;;
6378;SDS011;3222;48.858;10.128;2023-05-10T13:36:54;2.00;;;1.47;;
6378;SDS011;3222;48.858;10.128;2023-05-10T13:39:21;4.27;;;1.57;;
6378;SDS011;3222;48.858;10.128;2023-05-10T13:41:47;1.17;;;1.13;;
6378;SDS011;3222;48.858;10.128;2023-05-10T13:44:13;1.00;;;1.00;;
6378;SDS011;3222;48.858;10.128;2023-05-10T13:46:40;2.17;;;1.30;;
6378;SDS011;3222;48.858;10.128;2023-05-10T13:49:08;2.43;;;0.93;;
6378;SDS011;3222;48.858;10.128;2023-05-10T13:51:34;1.67;;;1.20;;
6378;SDS011;3222;48.858;10.128;2023-05-10T13:54:01;1.40;;;1.30;;
6378;SDS011;3222;48.858;10.128;2023-05-10T13:56:27;4.93;;;1.60;;
6378;SDS011;3222;48.858;10.128;2023-05-10T13:58:52;5.97;;;1.50;;
6378;SDS011;3222;48.858;10.128;2023-05-10T14:01:18;1.73;;;1.50;;
6378;SDS011;3222;48.858;10.128;2023-05-10T14:03:44;4.53;;;2.00;;
6378;SDS011;3222;48.858;10.128;2023-05-10T14:06:09;1.53;;;1.43;;
6378;SDS011;3222;48.858;10.128;2023-05-10T14:08:35;1.80;;;1.70;;
6378;SDS011;3222;48.858;10.128;2023-05-10T14:11:01;2.83;;;2.03;;
6378;SDS011;3222;48.858;10.128;2023-05-10T14:13:27;3.27;;;1.70;;
6378;SDS011;3222;48.858;10.128;2023-05-10T14:15:53;3.97;;;2.73;;
6378;SDS011;3222;48.858;10.128;2023-05-10T14:18:19;3.00;;;2.20;;
6378;SDS011;3222;48.858;10.128;2023-05-10T14:20:45;1.77;;;1.57;;
6378;SDS011;3222;48.858;10.128;2023-05-10T14:23:11;2.63;;;1.97;;
6378;SDS011;3222;48.858;10.128;2023-05-10T14:25:37;2.67;;;1.87;;
6378;SDS011;3222;48.858;10.128;2023-05-10T14:28:06;2.17;;;1.77;;
6378;SDS011;3222;48.858;10.128;2023-05-10T14:30:32;4.93;;;1.73;;
6378;SDS011;3222;48.858;10.128;2023-05-10T14:32:59;6.83;;;1.60;;
6378;SDS011;3222;48.858;10.128;2023-05-10T14:35:26;5.03;;;2.10;;
6378;SDS011;3222;48.858;10.128;2023-05-10T14:37:52;2.30;;;2.07;;
6378;SDS011;3222;48.858;10.128;2023-05-10T14:40:18;2.50;;;1.60;;
6378;SDS011;3222;48.858;10.128;2023-05-10T14:42:44;1.97;;;1.70;;
6378;SDS011;3222;48.858;10.128;2023-05-10T14:45:10;1.87;;;1.70;;
6378;SDS011;3222;48.858;10.128;2023-05-10T14:47:36;3.73;;;1.60;;
6378;SDS011;3222;48.858;10.128;2023-05-10T14:50:01;4.17;;;1.50;;
6378;SDS011;3222;48.858;10.128;2023-05-10T14:52:27;2.63;;;1.60;;
6378;SDS011;3222;48.858;10.128;2023-05-10T14:54:53;2.80;;;1.50;;
6378;SDS011;3222;48.858;10.128;2023-05-10T14:57:19;2.07;;;1.57;;
6378;SDS011;3222;48.858;10.128;2023-05-10T14:59:45;3.43;;;2.07;;
6378;SDS011;3222;48.858;10.128;2023-05-10T15:02:10;3.47;;;2.10;;
6378;SDS011;3222;48.858;10.128;2023-05-10T15:04:36;2.70;;;2.23;;
6378;SDS011;3222;48.858;10.128;2023-05-10T15:07:02;1.83;;;1.73;;
6378;SDS011;3222;48.858;10.128;2023-05-10T15:09:28;4.93;;;1.83;;
6378;SDS011;3222;48.858;10.128;2023-05-10T15:11:54;1.67;;;1.57;;
6378;SDS011;3222;48.858;10.128;2023-05-10T15:14:20;1.97;;;1.70;;
6378;SDS011;3222;48.858;10.128;2023-05-10T15:16:45;2.53;;;1.83;;
6378;SDS011;3222;48.858;10.128;2023-05-10T15:19:11;4.87;;;2.00;;
6378;SDS011;3222;48.858;10.128;2023-05-10T15:21:37;4.33;;;2.03;;
6378;SDS011;3222;48.858;10.128;2023-05-10T15:24:04;4.53;;;2.13;;
6378;SDS011;3222;48.858;10.128;2023-05-10T15:26:30;3.10;;;2.00;;
6378;SDS011;3222;48.858;10.128;2023-05-10T15:28:56;2.97;;;1.97;;
6378;SDS011;3222;48.858;10.128;2023-05-10T15:31:22;4.80;;;2.37;;